Time;durP1;ratioP1;P1;durP2;ratioP2;P2;SDS_P1;SDS_P2;PMS_P1;PMS_P2;Temp;Humidity;BMP_temperature;BMP_pressure;BME280_temperature;BME280_humidity;BME280_pressure;Samples;Min_cycle;Max_cycle;Signal;HPM_P1;HPM_P2
2022/11/03 00:00:45;0.00;0.00;0.62;0.00;0.00;0.62;1.60;1.00;;;28.60;26.60;;;;;;2261361;61;20409;-61
2022/11/03 00:03:30;0.00;0.00;0.62;0.00;0.00;0.62;1.90;1.23;;;28.50;26.60;;;;;;2261809;61;20409;-60
2022/11/03 00:06:15;0.00;0.00;0.62;0.00;0.00;0.62;1.90;1.13;;;28.50;26.60;;;;;;2265787;61;20693;-60
2022/11/03 00:09:04;0.00;0.00;0.62;0.00;0.00;0.62;1.30;0.77;;;28.50;26.60;;;;;;2265302;61;20361;-61
2022/11/03 00:11:50;0.00;0.00;0.62;0.00;0.00;0.62;1.60;1.20;;;28.50;26.70;;;;;;2265997;61;20381;-60
2022/11/03 00:14:35;0.00;0.00;0.62;0.00;0.00;0.62;1.70;0.93;;;28.50;26.60;;;;;;2266000;61;20391;-60
2022/11/03 00:17:20;0.00;0.00;0.62;0.00;0.00;0.62;1.80;0.87;;;28.50;26.60;;;;;;2266088;61;20381;-60
2022/11/03 00:20:06;0.00;0.00;0.62;0.00;0.00;0.62;1.40;0.70;;;28.50;26.60;;;;;;2265969;61;20403;-61
2022/11/03 00:22:50;0.00;0.00;0.62;0.00;0.00;0.62;1.90;1.10;;;28.50;26.60;;;;;;2265193;61;20684;-60
2022/11/03 00:25:36;0.00;0.00;0.62;0.00;0.00;0.62;1.60;1.07;;;28.50;26.60;;;;;;2266069;61;20385;-61
2022/11/03 00:28:21;0.00;0.00;0.62;0.00;0.00;0.62;1.60;0.87;;;28.50;26.70;;;;;;2266081;61;20364;-60
2022/11/03 00:31:08;0.00;0.00;0.62;0.00;0.00;0.62;2.83;1.43;;;28.50;27.20;;;;;;2265523;61;20361;-61
2022/11/03 00:33:54;0.00;0.00;0.62;0.00;0.00;0.62;2.10;1.17;;;28.50;26.60;;;;;;2265190;61;20412;-68
2022/11/03 00:36:41;0.00;0.00;0.62;0.00;0.00;0.62;1.90;1.20;;;28.40;26.60;;;;;;2266147;61;20381;-66
2022/11/03 00:39:26;0.00;0.00;0.62;0.00;0.00;0.62;1.70;0.90;;;28.40;26.60;;;;;;2266041;61;20396;-66
2022/11/03 00:42:12;0.00;0.00;0.62;0.00;0.00;0.62;2.50;1.20;;;28.40;26.60;;;;;;2265822;61;20376;-66
2022/11/03 00:44:56;0.00;0.00;0.62;0.00;0.00;0.62;2.17;1.00;;;28.40;26.50;;;;;;2265466;61;20578;-69
2022/11/03 00:48:28;0.00;0.00;0.62;0.00;0.00;0.62;3.10;1.47;;;28.40;26.40;;;;;;2266097;61;20763;-70
2022/11/03 00:50:46;0.00;0.00;0.62;0.00;0.00;0.62;3.50;1.47;;;28.40;26.30;;;;;;2266045;61;20728;-71
2022/11/03 00:53:32;0.00;0.00;0.62;0.00;0.00;0.62;3.00;1.50;;;28.40;25.80;;;;;;2264993;61;20360;-71
2022/11/03 00:56:19;0.00;0.00;0.62;0.00;0.00;0.62;2.77;1.40;;;28.30;25.40;;;;;;2265736;61;20383;-70
2022/11/03 00:59:08;0.00;0.00;0.62;0.00;0.00;0.62;2.73;1.40;;;28.20;25.10;;;;;;2265932;61;20590;-69
2022/11/03 01:01:52;0.00;0.00;0.62;0.00;0.00;0.62;2.70;1.60;;;28.20;25.00;;;;;;2265604;61;20435;-70
2022/11/03 01:07:41;0.00;0.00;0.62;0.00;0.00;0.62;2.97;1.80;;;28.00;24.60;;;;;;2265469;61;20400;-70
2022/11/03 01:10:26;0.00;0.00;0.62;0.00;0.00;0.62;2.80;1.43;;;28.00;24.60;;;;;;2265874;61;20726;-71
2022/11/03 01:13:12;0.00;0.00;0.62;0.00;0.00;0.62;3.20;1.50;;;27.90;24.40;;;;;;2266018;61;20357;-71
2022/11/03 01:15:58;0.00;0.00;0.62;0.00;0.00;0.62;2.53;1.37;;;27.80;24.30;;;;;;2264993;61;20449;-70
2022/11/03 01:18:43;0.00;0.00;0.62;0.00;0.00;0.62;4.33;1.70;;;27.70;24.30;;;;;;2265744;61;20361;-70
2022/11/03 01:21:28;0.00;0.00;0.62;0.00;0.00;0.62;5.43;2.07;;;27.70;24.20;;;;;;2265428;61;20552;-70
2022/11/03 01:24:13;0.00;0.00;0.62;0.00;0.00;0.62;3.77;2.07;;;27.60;24.00;;;;;;2265739;61;20384;-70
2022/11/03 01:26:57;0.00;0.00;0.62;0.00;0.00;0.62;5.60;1.60;;;27.50;23.90;;;;;;2265455;61;20384;-71
2022/11/03 01:29:43;0.00;0.00;0.62;0.00;0.00;0.62;3.13;2.10;;;27.40;23.90;;;;;;2265173;61;20705;-70
2022/11/03 01:32:29;0.00;0.00;0.62;0.00;0.00;0.62;3.00;1.37;;;27.40;23.90;;;;;;2265642;61;20709;-71
2022/11/03 01:35:14;0.00;0.00;0.62;0.00;0.00;0.62;3.83;1.83;;;27.30;23.90;;;;;;2265875;61;20496;-70
2022/11/03 01:37:59;0.00;0.00;0.62;0.00;0.00;0.62;3.20;1.77;;;27.20;23.90;;;;;;2265370;61;20360;-71
2022/11/03 01:40:43;0.00;0.00;0.62;0.00;0.00;0.62;3.93;1.80;;;27.20;24.00;;;;;;2265258;61;20365;-71
2022/11/03 01:43:31;0.00;0.00;0.62;0.00;0.00;0.62;4.63;1.83;;;27.10;23.90;;;;;;2265679;61;20642;-70
2022/11/03 01:46:19;0.00;0.00;0.62;0.00;0.00;0.62;3.50;1.50;;;27.00;23.90;;;;;;2265895;61;20384;-71
2022/11/03 01:49:13;0.00;0.00;0.62;0.00;0.00;0.62;4.13;1.90;;;27.00;23.90;;;;;;2265565;61;20689;-71
2022/11/03 01:52:06;0.00;0.00;0.62;0.00;0.00;0.62;3.23;1.50;;;26.90;23.80;;;;;;2265164;61;20365;-71
2022/11/03 01:54:56;0.00;0.00;0.62;0.00;0.00;0.62;4.97;1.80;;;26.90;23.90;;;;;;2265561;61;20349;-70
2022/11/03 01:57:45;0.00;0.00;0.62;0.00;0.00;0.62;3.77;2.03;;;26.80;24.00;;;;;;2265931;61;20405;-70
2022/11/03 02:00:30;0.00;0.00;0.62;0.00;0.00;0.62;4.83;1.87;;;26.70;23.90;;;;;;2264982;61;20856;-71
2022/11/03 02:03:16;0.00;0.00;0.62;0.00;0.00;0.62;4.13;1.67;;;26.60;23.90;;;;;;2265538;61;20388;-70
2022/11/03 02:06:04;0.00;0.00;0.62;0.00;0.00;0.62;3.20;1.73;;;26.60;24.00;;;;;;2264969;61;20412;-68
2022/11/03 02:08:53;0.00;0.00;0.62;0.00;0.00;0.62;4.30;2.00;;;26.50;24.00;;;;;;2265947;61;20365;-71
2022/11/03 02:14:48;0.00;0.00;0.62;0.00;0.00;0.62;3.77;1.57;;;26.50;24.60;;;;;;2265022;61;20381;-70
2022/11/03 02:17:34;0.00;0.00;0.62;0.00;0.00;0.62;3.50;1.90;;;26.40;24.00;;;;;;2265685;61;20365;-71
2022/11/03 02:20:23;0.00;0.00;0.62;0.00;0.00;0.62;5.83;1.90;;;26.30;24.00;;;;;;2265692;61;20705;-70
2022/11/03 02:23:22;0.00;0.00;0.62;0.00;0.00;0.62;6.37;1.57;;;26.30;24.10;;;;;;2265804;61;20420;-70
2022/11/03 02:26:10;0.00;0.00;0.62;0.00;0.00;0.62;4.20;2.03;;;26.30;24.20;;;;;;2265442;61;20389;-70
2022/11/03 02:28:56;0.00;0.00;0.62;0.00;0.00;0.62;4.50;1.80;;;26.20;24.10;;;;;;2265231;61;20369;-70
2022/11/03 02:31:44;0.00;0.00;0.62;0.00;0.00;0.62;4.30;1.90;;;26.20;24.30;;;;;;2265645;61;20388;-70
2022/11/03 02:34:38;0.00;0.00;0.62;0.00;0.00;0.62;4.17;1.70;;;26.10;24.20;;;;;;2265568;61;20433;-70
2022/11/03 02:37:27;0.00;0.00;0.62;0.00;0.00;0.62;4.00;1.70;;;26.10;24.80;;;;;;2265187;61;20749;-70
2022/11/03 02:40:17;0.00;0.00;0.62;0.00;0.00;0.62;5.70;2.13;;;26.10;24.30;;;;;;2265461;61;20354;-70
2022/11/03 02:43:04;0.00;0.00;0.62;0.00;0.00;0.62;3.33;1.67;;;26.00;24.30;;;;;;2264777;61;20788;-71
2022/11/03 02:45:51;0.00;0.00;0.62;0.00;0.00;0.62;3.17;1.60;;;26.00;24.30;;;;;;2265680;61;20400;-70
2022/11/03 02:48:36;0.00;0.00;0.62;0.00;0.00;0.62;3.43;1.47;;;26.00;24.30;;;;;;2265389;61;20419;-70
2022/11/03 02:51:22;0.00;0.00;0.62;0.00;0.00;0.62;3.33;1.73;;;26.00;24.40;;;;;;2264951;61;20369;-70
2022/11/03 02:54:14;0.00;0.00;0.62;0.00;0.00;0.62;4.57;1.93;;;26.00;24.90;;;;;;2264973;61;20729;-70
2022/11/03 02:57:04;0.00;0.00;0.62;0.00;0.00;0.62;4.00;1.70;;;25.90;24.30;;;;;;2265337;61;20463;-69
2022/11/03 03:00:00;0.00;0.00;0.62;0.00;0.00;0.62;6.00;1.93;;;25.90;24.50;;;;;;2265286;61;20365;-70
2022/11/03 03:02:54;0.00;0.00;0.62;0.00;0.00;0.62;2.43;1.43;;;25.90;24.50;;;;;;2265397;61;20405;-70
2022/11/03 03:05:41;0.00;0.00;0.62;0.00;0.00;0.62;4.07;1.83;;;25.90;24.50;;;;;;2264869;61;20412;-70
2022/11/03 03:08:27;0.00;0.00;0.62;0.00;0.00;0.62;4.00;1.93;;;25.80;24.50;;;;;;2265655;61;20365;-70
2022/11/03 03:11:12;0.00;0.00;0.62;0.00;0.00;0.62;4.97;2.37;;;25.80;24.50;;;;;;2265697;61;20360;-70
2022/11/03 03:13:57;0.00;0.00;0.62;0.00;0.00;0.62;3.13;1.60;;;25.80;24.50;;;;;;2264823;61;20423;-70
2022/11/03 03:16:53;0.00;0.00;0.62;0.00;0.00;0.62;5.03;1.57;;;25.80;24.50;;;;;;2264581;61;20787;-70
2022/11/03 03:19:48;0.00;0.00;0.62;0.00;0.00;0.62;4.00;1.60;;;25.80;24.60;;;;;;2265958;61;20443;-69
2022/11/03 03:22:38;0.00;0.00;0.62;0.00;0.00;0.62;2.77;1.60;;;25.80;24.60;;;;;;2265667;61;20756;-70
2022/11/03 03:25:28;0.00;0.00;0.62;0.00;0.00;0.62;3.07;1.80;;;25.80;24.60;;;;;;2265221;61;20404;-70
2022/11/03 03:28:18;0.00;0.00;0.62;0.00;0.00;0.62;2.80;1.30;;;25.80;24.60;;;;;;2264879;61;20437;-71
2022/11/03 03:31:07;0.00;0.00;0.62;0.00;0.00;0.62;3.00;1.47;;;25.70;24.60;;;;;;2265275;61;20449;-70
2022/11/03 03:33:56;0.00;0.00;0.62;0.00;0.00;0.62;2.63;1.40;;;25.70;24.70;;;;;;2265587;61;20352;-69
2022/11/03 03:36:44;0.00;0.00;0.62;0.00;0.00;0.62;4.53;1.57;;;25.70;24.70;;;;;;2264868;61;20388;-70
2022/11/03 03:39:35;0.00;0.00;0.62;0.00;0.00;0.62;2.87;1.47;;;25.70;24.70;;;;;;2265302;61;20357;-70
2022/11/03 03:42:23;0.00;0.00;0.62;0.00;0.00;0.62;4.87;1.70;;;25.70;24.70;;;;;;2264707;61;20385;-69
2022/11/03 03:45:11;0.00;0.00;0.62;0.00;0.00;0.62;2.60;1.40;;;25.60;24.60;;;;;;2265524;61;20384;-69
2022/11/03 03:47:55;0.00;0.00;0.62;0.00;0.00;0.62;4.57;1.80;;;25.60;24.60;;;;;;2265538;61;20706;-69
2022/11/03 03:50:45;0.00;0.00;0.62;0.00;0.00;0.62;4.63;1.77;;;25.60;24.60;;;;;;2264775;61;20361;-68
2022/11/03 03:53:30;0.00;0.00;0.62;0.00;0.00;0.62;3.10;1.37;;;25.60;24.60;;;;;;2264932;61;20469;-69
2022/11/03 03:56:15;0.00;0.00;0.62;0.00;0.00;0.62;3.90;2.07;;;25.50;24.60;;;;;;2264931;61;20980;-69
2022/11/03 03:59:00;0.00;0.00;0.62;0.00;0.00;0.62;5.80;1.87;;;25.50;24.60;;;;;;2265075;61;20373;-70
2022/11/03 04:01:44;0.00;0.00;0.62;0.00;0.00;0.62;3.77;2.00;;;25.50;24.60;;;;;;2265363;61;20353;-69
2022/11/03 04:04:29;0.00;0.00;0.62;0.00;0.00;0.62;4.07;1.57;;;25.50;24.60;;;;;;2264469;61;20385;-70
2022/11/03 04:10:21;0.00;0.00;0.62;0.00;0.00;0.62;2.93;1.70;;;25.50;24.70;;;;;;2265518;61;20353;-70
2022/11/03 04:22:21;0.00;0.00;0.62;0.00;0.00;0.62;4.47;1.43;;;25.40;24.70;;;;;;2265491;61;20444;-70
2022/11/03 04:25:07;0.00;0.00;0.62;0.00;0.00;0.62;3.20;1.77;;;25.40;24.70;;;;;;2265277;61;20357;-71
2022/11/03 04:27:52;0.00;0.00;0.62;0.00;0.00;0.62;3.10;1.50;;;25.40;24.70;;;;;;2265223;61;20826;-71
2022/11/03 04:30:36;0.00;0.00;0.62;0.00;0.00;0.62;2.30;1.63;;;25.40;24.70;;;;;;2265629;61;20434;-70
2022/11/03 04:33:21;0.00;0.00;0.62;0.00;0.00;0.62;3.40;1.43;;;25.40;24.70;;;;;;2266316;61;20357;-70
2022/11/03 04:36:13;0.00;0.00;0.62;0.00;0.00;0.62;3.03;1.37;;;25.40;24.70;;;;;;2265487;61;20492;-70
2022/11/03 04:39:00;0.00;0.00;0.62;0.00;0.00;0.62;2.87;1.53;;;25.40;24.80;;;;;;2265953;61;20730;-70
2022/11/03 04:41:45;0.00;0.00;0.62;0.00;0.00;0.62;2.90;1.40;;;25.40;24.80;;;;;;2265268;61;20357;-69
2022/11/03 04:44:29;0.00;0.00;0.62;0.00;0.00;0.62;2.63;1.40;;;25.40;24.80;;;;;;2265998;61;20388;-70
2022/11/03 04:47:17;0.00;0.00;0.62;0.00;0.00;0.62;2.00;1.20;;;25.40;24.80;;;;;;2266003;61;20611;-70
2022/11/03 04:50:01;0.00;0.00;0.62;0.00;0.00;0.62;2.37;1.03;;;25.40;24.80;;;;;;2265368;61;20407;-70
2022/11/03 04:52:47;0.00;0.00;0.62;0.00;0.00;0.62;2.70;1.30;;;25.40;24.80;;;;;;2265320;61;20420;-70
2022/11/03 04:55:33;0.00;0.00;0.62;0.00;0.00;0.62;3.60;1.80;;;25.40;24.80;;;;;;2266010;61;20384;-70
2022/11/03 04:58:20;0.00;0.00;0.62;0.00;0.00;0.62;3.50;1.43;;;25.40;24.80;;;;;;2265609;61;20364;-70
2022/11/03 05:01:11;0.00;0.00;0.62;0.00;0.00;0.62;3.20;1.77;;;25.40;24.80;;;;;;2265837;61;20422;-71
2022/11/03 05:03:56;0.00;0.00;0.62;0.00;0.00;0.62;3.20;1.30;;;25.30;24.80;;;;;;2264766;61;20395;-70
2022/11/03 05:06:49;0.00;0.00;0.62;0.00;0.00;0.62;3.93;1.83;;;25.40;24.80;;;;;;2538774;53;20389;-71
2022/11/03 05:09:34;0.00;0.00;0.62;0.00;0.00;0.62;3.77;1.30;;;25.40;24.80;;;;;;2262133;61;20365;-70
2022/11/03 05:12:20;0.00;0.00;0.62;0.00;0.00;0.62;3.60;1.30;;;25.30;24.80;;;;;;2261247;61;20386;-69
2022/11/03 05:15:23;0.00;0.00;0.62;0.00;0.00;0.62;3.97;1.70;;;25.40;24.80;;;;;;2261623;61;20381;-70
2022/11/03 05:18:17;0.00;0.00;0.62;0.00;0.00;0.62;4.40;1.80;;;25.30;24.80;;;;;;2261736;61;20377;-69
2022/11/03 05:21:06;0.00;0.00;0.62;0.00;0.00;0.62;2.40;1.30;;;25.30;24.80;;;;;;2261652;61;20358;-70
2022/11/03 05:23:54;0.00;0.00;0.62;0.00;0.00;0.62;3.37;1.60;;;25.30;24.80;;;;;;2261654;61;20654;-70
2022/11/03 05:26:39;0.00;0.00;0.62;0.00;0.00;0.62;2.63;1.17;;;25.30;24.80;;;;;;2260905;61;20501;-70
2022/11/03 05:29:31;0.00;0.00;0.62;0.00;0.00;0.62;1.60;1.00;;;25.30;24.80;;;;;;2261726;61;20571;-70
2022/11/03 05:32:22;0.00;0.00;0.62;0.00;0.00;0.62;2.70;1.40;;;25.30;24.80;;;;;;2261901;61;20381;-70
2022/11/03 05:35:16;0.00;0.00;0.62;0.00;0.00;0.62;2.83;1.70;;;25.30;24.80;;;;;;2261127;61;20350;-69
2022/11/03 05:38:05;0.00;0.00;0.62;0.00;0.00;0.62;3.70;1.60;;;25.30;24.80;;;;;;2261588;61;20393;-69
2022/11/03 05:40:53;0.00;0.00;0.62;0.00;0.00;0.62;2.80;1.40;;;25.30;24.90;;;;;;2261216;61;20401;-62
2022/11/03 05:43:37;0.00;0.00;0.62;0.00;0.00;0.62;1.87;1.10;;;25.30;24.90;;;;;;2261745;61;20441;-61
2022/11/03 05:46:26;0.00;0.00;0.62;0.00;0.00;0.62;3.40;1.20;;;25.30;24.90;;;;;;2261846;61;20415;-61
2022/11/03 05:49:11;0.00;0.00;0.62;0.00;0.00;0.62;3.20;2.20;;;25.30;24.90;;;;;;2260577;61;20362;-62
2022/11/03 05:51:56;0.00;0.00;0.62;0.00;0.00;0.62;2.70;1.80;;;25.40;24.90;;;;;;2261701;61;20431;-62
2022/11/03 05:54:40;0.00;0.00;0.62;0.00;0.00;0.62;3.93;1.70;;;25.30;24.90;;;;;;2261752;61;20350;-62
2022/11/03 05:57:28;0.00;0.00;0.62;0.00;0.00;0.62;4.20;2.33;;;25.40;24.90;;;;;;2261190;61;20746;-61
2022/11/03 06:00:32;0.00;0.00;0.62;0.00;0.00;0.62;3.20;2.03;;;25.30;24.90;;;;;;2261646;61;20362;-61
2022/11/03 06:03:23;0.00;0.00;0.62;0.00;0.00;0.62;4.10;2.00;;;25.40;24.90;;;;;;2260728;61;20651;-62
2022/11/03 06:06:17;0.00;0.00;0.62;0.00;0.00;0.62;5.53;2.30;;;25.40;24.90;;;;;;2265072;61;20794;-62
2022/11/03 06:09:09;0.00;0.00;0.62;0.00;0.00;0.62;3.80;2.37;;;25.40;24.90;;;;;;2265729;61;20392;-62
2022/11/03 06:11:57;0.00;0.00;0.62;0.00;0.00;0.62;2.83;2.20;;;25.40;24.90;;;;;;2265299;61;20737;-62
2022/11/03 06:14:42;0.00;0.00;0.62;0.00;0.00;0.62;4.13;2.90;;;25.40;24.90;;;;;;2265406;61;20356;-62
2022/11/03 06:17:28;0.00;0.00;0.62;0.00;0.00;0.62;5.13;2.97;;;25.40;24.90;;;;;;2265168;61;20377;-62
2022/11/03 06:20:20;0.00;0.00;0.62;0.00;0.00;0.62;3.70;2.77;;;25.40;24.90;;;;;;2265995;61;20356;-61
2022/11/03 06:23:09;0.00;0.00;0.62;0.00;0.00;0.62;5.53;3.33;;;25.40;25.00;;;;;;2265430;61;20706;-69
2022/11/03 06:25:56;0.00;0.00;0.62;0.00;0.00;0.62;4.80;3.00;;;25.40;25.00;;;;;;2262201;61;20388;-66
2022/11/03 06:28:41;0.00;0.00;0.62;0.00;0.00;0.62;5.23;2.80;;;25.40;25.10;;;;;;2264611;61;21067;-66
2022/11/03 06:31:29;0.00;0.00;0.62;0.00;0.00;0.62;5.40;3.00;;;25.40;25.20;;;;;;2265830;61;20728;-61
2022/11/03 06:34:35;0.00;0.00;0.62;0.00;0.00;0.62;4.53;2.60;;;25.40;25.20;;;;;;2265164;61;20383;-60
2022/11/03 06:37:26;0.00;0.00;0.62;0.00;0.00;0.62;5.50;3.30;;;25.50;25.10;;;;;;2265362;61;20392;-65
2022/11/03 06:40:44;0.00;0.00;0.62;0.00;0.00;0.62;4.90;3.10;;;25.50;25.10;;;;;;2265169;61;20361;-69
2022/11/03 06:43:39;0.00;0.00;0.62;0.00;0.00;0.62;3.57;3.00;;;25.40;25.00;;;;;;2265383;61;20817;-68
2022/11/03 06:46:26;0.00;0.00;0.62;0.00;0.00;0.62;6.10;2.77;;;25.40;25.00;;;;;;2265762;61;20530;-67
2022/11/03 06:49:28;0.00;0.00;0.62;0.00;0.00;0.62;5.07;2.87;;;25.40;24.90;;;;;;2265389;61;20361;-65
2022/11/03 06:52:38;0.00;0.00;0.62;0.00;0.00;0.62;5.90;3.00;;;25.40;24.90;;;;;;2265521;61;20581;-61
2022/11/03 06:55:25;0.00;0.00;0.62;0.00;0.00;0.62;7.03;2.93;;;25.40;24.90;;;;;;2265002;61;20364;-68
2022/11/03 06:58:22;0.00;0.00;0.62;0.00;0.00;0.62;4.73;3.17;;;25.30;24.80;;;;;;2265461;61;20480;-65
2022/11/03 07:01:14;0.00;0.00;0.62;0.00;0.00;0.62;4.60;2.50;;;25.30;24.90;;;;;;2265858;61;20380;-67
2022/11/03 07:04:01;0.00;0.00;0.62;0.00;0.00;0.62;3.07;2.20;;;25.30;24.90;;;;;;2264775;61;20439;-69
2022/11/03 07:06:47;0.00;0.00;0.62;0.00;0.00;0.62;3.63;2.60;;;25.30;25.00;;;;;;2635185;45;20799;-61
2022/11/03 07:09:33;0.00;0.00;0.62;0.00;0.00;0.62;4.20;2.10;;;25.30;25.00;;;;;;2261035;61;20851;-70
2022/11/03 07:12:18;0.00;0.00;0.62;0.00;0.00;0.62;3.20;1.93;;;25.30;25.00;;;;;;2264768;61;20380;-69
2022/11/03 07:15:23;0.00;0.00;0.62;0.00;0.00;0.62;3.20;2.33;;;25.30;25.00;;;;;;2263592;61;20582;-67
2022/11/03 07:18:19;0.00;0.00;0.62;0.00;0.00;0.62;3.27;1.73;;;25.30;25.10;;;;;;2263803;61;20381;-67
2022/11/03 07:21:23;0.00;0.00;0.62;0.00;0.00;0.62;4.80;1.93;;;25.30;25.10;;;;;;2263051;61;20364;-61
2022/11/03 07:24:20;0.00;0.00;0.62;0.00;0.00;0.62;2.67;1.83;;;25.30;25.10;;;;;;2263273;61;20450;-61
2022/11/03 07:27:19;0.00;0.00;0.62;0.00;0.00;0.62;4.03;2.20;;;25.30;25.10;;;;;;2263893;61;20461;-67
2022/11/03 07:30:17;0.00;0.00;0.62;0.00;0.00;0.62;4.07;2.37;;;25.30;25.10;;;;;;2264371;61;20441;-63
2022/11/03 07:33:11;0.00;0.00;0.62;0.00;0.00;0.62;2.93;1.63;;;25.40;25.20;;;;;;2263710;61;20354;-67
2022/11/03 07:35:57;0.00;0.00;0.62;0.00;0.00;0.62;4.70;2.43;;;25.40;25.20;;;;;;2264072;61;20484;-61
2022/11/03 07:38:45;0.00;0.00;0.62;0.00;0.00;0.62;3.60;2.30;;;25.40;25.20;;;;;;2263882;61;20365;-64
2022/11/03 07:41:32;0.00;0.00;0.62;0.00;0.00;0.62;3.50;2.00;;;25.40;25.20;;;;;;2264277;61;20362;-63
2022/11/03 07:44:20;0.00;0.00;0.62;0.00;0.00;0.62;3.87;1.97;;;25.40;25.20;;;;;;2263898;61;20389;-68
2022/11/03 07:47:12;0.00;0.00;0.62;0.00;0.00;0.62;2.93;1.97;;;25.40;25.20;;;;;;2263465;61;20381;-67
2022/11/03 07:49:57;0.00;0.00;0.62;0.00;0.00;0.62;2.90;2.00;;;25.40;25.20;;;;;;2264045;61;20381;-64
2022/11/03 07:52:42;0.00;0.00;0.62;0.00;0.00;0.62;3.07;1.80;;;25.40;25.20;;;;;;2264124;61;20373;-63
2022/11/03 07:55:27;0.00;0.00;0.62;0.00;0.00;0.62;2.70;1.87;;;25.40;25.20;;;;;;2264209;61;20385;-64
2022/11/03 07:58:23;0.00;0.00;0.62;0.00;0.00;0.62;3.23;2.10;;;25.40;25.20;;;;;;2268238;61;20357;-65
2022/11/03 08:01:28;0.00;0.00;0.62;0.00;0.00;0.62;5.20;2.20;;;25.50;25.30;;;;;;2267544;61;20364;-66
2022/11/03 08:04:19;0.00;0.00;0.62;0.00;0.00;0.62;4.00;1.60;;;25.40;25.20;;;;;;2268469;61;20524;-65
2022/11/03 08:07:04;0.00;0.00;0.62;0.00;0.00;0.62;4.43;1.97;;;25.50;25.20;;;;;;2268725;61;20599;-66
2022/11/03 08:09:50;0.00;0.00;0.62;0.00;0.00;0.62;2.63;1.87;;;25.50;25.20;;;;;;2268361;61;20566;-66
2022/11/03 08:12:35;0.00;0.00;0.62;0.00;0.00;0.62;4.30;1.87;;;25.50;25.20;;;;;;2268640;61;20378;-66
2022/11/03 08:15:20;0.00;0.00;0.62;0.00;0.00;0.62;4.00;1.80;;;25.50;25.20;;;;;;2268587;61;20364;-62
2022/11/03 08:18:06;0.00;0.00;0.62;0.00;0.00;0.62;2.70;1.77;;;25.50;25.30;;;;;;2268194;61;20361;-63
2022/11/03 08:20:52;0.00;0.00;0.62;0.00;0.00;0.62;4.47;1.70;;;25.50;25.30;;;;;;2268621;61;20361;-63
2022/11/03 08:23:37;0.00;0.00;0.62;0.00;0.00;0.62;3.07;1.53;;;25.50;25.30;;;;;;2267952;61;20399;-64
2022/11/03 08:26:22;0.00;0.00;0.62;0.00;0.00;0.62;2.90;1.80;;;25.50;25.80;;;;;;2267975;61;20419;-66
2022/11/03 08:29:07;0.00;0.00;0.62;0.00;0.00;0.62;2.83;1.60;;;25.50;25.20;;;;;;2266221;61;20360;-62
2022/11/03 08:31:52;0.00;0.00;0.62;0.00;0.00;0.62;3.40;1.40;;;25.50;25.20;;;;;;2265580;61;20384;-61
2022/11/03 08:34:38;0.00;0.00;0.62;0.00;0.00;0.62;3.53;1.80;;;25.50;25.30;;;;;;2266070;61;20480;-62
2022/11/03 08:37:22;0.00;0.00;0.62;0.00;0.00;0.62;4.87;2.23;;;25.60;25.30;;;;;;2266190;61;20494;-61
2022/11/03 08:40:09;0.00;0.00;0.62;0.00;0.00;0.62;4.70;2.13;;;25.60;25.30;;;;;;2265692;61;20667;-62
2022/11/03 08:42:54;0.00;0.00;0.62;0.00;0.00;0.62;3.47;2.00;;;25.50;25.30;;;;;;2265741;61;20432;-68
2022/11/03 08:45:39;0.00;0.00;0.62;0.00;0.00;0.62;3.03;2.07;;;25.60;25.40;;;;;;2265339;61;20379;-67
2022/11/03 08:48:26;0.00;0.00;0.62;0.00;0.00;0.62;3.20;1.73;;;25.60;25.50;;;;;;2266331;61;20424;-61
2022/11/03 08:51:13;0.00;0.00;0.62;0.00;0.00;0.62;2.03;1.30;;;25.70;25.50;;;;;;2266125;61;20353;-60
2022/11/03 08:53:58;0.00;0.00;0.62;0.00;0.00;0.62;3.07;1.70;;;25.70;25.60;;;;;;2265213;61;20399;-60
2022/11/03 08:56:45;0.00;0.00;0.62;0.00;0.00;0.62;3.03;1.63;;;25.70;25.60;;;;;;2266197;61;20427;-66
2022/11/03 08:59:30;0.00;0.00;0.62;0.00;0.00;0.62;4.30;1.50;;;25.70;25.70;;;;;;2266216;61;20396;-64
2022/11/03 09:02:14;0.00;0.00;0.62;0.00;0.00;0.62;3.47;1.57;;;25.70;25.70;;;;;;2265822;61;20361;-67
2022/11/03 09:04:59;0.00;0.00;0.62;0.00;0.00;0.62;3.23;1.73;;;25.80;25.70;;;;;;2265948;61;20373;-67
2022/11/03 09:07:45;0.00;0.00;0.62;0.00;0.00;0.62;3.33;1.50;;;25.80;25.70;;;;;;2265463;61;20365;-66
2022/11/03 09:10:30;0.00;0.00;0.62;0.00;0.00;0.62;2.90;1.73;;;25.80;25.80;;;;;;2266321;61;20468;-65
2022/11/03 09:13:15;0.00;0.00;0.62;0.00;0.00;0.62;2.10;1.47;;;25.80;25.80;;;;;;2265680;61;20357;-66
2022/11/03 09:15:59;0.00;0.00;0.62;0.00;0.00;0.62;2.20;1.27;;;25.90;25.90;;;;;;2265174;61;20377;-65
2022/11/03 09:18:44;0.00;0.00;0.62;0.00;0.00;0.62;3.70;2.13;;;25.90;25.90;;;;;;2266085;61;20744;-67
2022/11/03 09:21:29;0.00;0.00;0.62;0.00;0.00;0.62;2.17;1.30;;;25.90;25.90;;;;;;2266164;61;20365;-66
2022/11/03 09:24:15;0.00;0.00;0.62;0.00;0.00;0.62;3.40;1.50;;;26.00;25.90;;;;;;2265297;61;20392;-67
2022/11/03 09:27:00;0.00;0.00;0.62;0.00;0.00;0.62;3.97;1.90;;;26.00;25.90;;;;;;2265952;61;20384;-60
2022/11/03 09:29:45;0.00;0.00;0.62;0.00;0.00;0.62;2.87;1.77;;;26.00;25.90;;;;;;2265788;61;20404;-60
2022/11/03 09:32:30;0.00;0.00;0.62;0.00;0.00;0.62;2.17;1.40;;;26.10;25.90;;;;;;2266318;61;20360;-61
2022/11/03 09:35:15;0.00;0.00;0.62;0.00;0.00;0.62;2.40;1.40;;;26.10;25.90;;;;;;2265772;61;20408;-61
2022/11/03 09:38:00;0.00;0.00;0.62;0.00;0.00;0.62;2.37;1.60;;;26.10;25.80;;;;;;2265423;61;20354;-64
2022/11/03 09:40:47;0.00;0.00;0.62;0.00;0.00;0.62;2.90;2.00;;;26.20;25.90;;;;;;2265940;61;20389;-66
2022/11/03 09:43:32;0.00;0.00;0.62;0.00;0.00;0.62;2.00;1.40;;;26.20;25.90;;;;;;2265943;61;20385;-64
2022/11/03 09:46:17;0.00;0.00;0.62;0.00;0.00;0.62;3.80;1.50;;;26.20;25.90;;;;;;2265099;61;20393;-67
2022/11/03 09:49:04;0.00;0.00;0.62;0.00;0.00;0.62;2.17;1.33;;;26.30;25.90;;;;;;2265802;61;20365;-63
2022/11/03 09:51:49;0.00;0.00;0.62;0.00;0.00;0.62;2.13;1.20;;;26.30;25.90;;;;;;2266374;61;20361;-64
2022/11/03 09:54:33;0.00;0.00;0.62;0.00;0.00;0.62;2.47;1.20;;;26.30;25.90;;;;;;2265901;61;20435;-60
2022/11/03 09:57:21;0.00;0.00;0.62;0.00;0.00;0.62;3.70;1.50;;;26.30;25.90;;;;;;2265809;61;20373;-60
2022/11/03 10:00:15;0.00;0.00;0.62;0.00;0.00;0.62;2.50;1.27;;;26.40;25.90;;;;;;2265355;61;20437;-62
2022/11/03 10:03:02;0.00;0.00;0.62;0.00;0.00;0.62;2.77;1.50;;;26.40;25.90;;;;;;2265712;61;20445;-64
2022/11/03 10:05:47;0.00;0.00;0.62;0.00;0.00;0.62;2.67;1.47;;;26.40;25.90;;;;;;2265595;61;20401;-64
2022/11/03 10:08:35;0.00;0.00;0.62;0.00;0.00;0.62;2.63;1.63;;;26.40;25.90;;;;;;2265255;61;20353;-66
2022/11/03 10:11:20;0.00;0.00;0.62;0.00;0.00;0.62;2.33;1.20;;;26.50;25.90;;;;;;2265764;61;20407;-69
2022/11/03 10:14:12;0.00;0.00;0.62;0.00;0.00;0.62;2.27;1.40;;;26.50;26.40;;;;;;2265726;61;20392;-61
2022/11/03 10:17:01;0.00;0.00;0.62;0.00;0.00;0.62;2.43;1.27;;;26.50;25.80;;;;;;2265924;61;20488;-61
2022/11/03 10:19:50;0.00;0.00;0.62;0.00;0.00;0.62;1.80;1.00;;;26.60;25.90;;;;;;2265873;61;20416;-62
2022/11/03 10:22:35;0.00;0.00;0.62;0.00;0.00;0.62;2.23;1.13;;;26.60;25.90;;;;;;2265259;61;20733;-66
2022/11/03 10:25:35;0.00;0.00;0.62;0.00;0.00;0.62;4.10;1.70;;;26.60;25.80;;;;;;2265460;61;20388;-68
2022/11/03 10:28:22;0.00;0.00;0.62;0.00;0.00;0.62;1.83;1.00;;;26.60;25.80;;;;;;2266016;61;20397;-68
2022/11/03 10:31:19;0.00;0.00;0.62;0.00;0.00;0.62;2.07;1.20;;;26.70;25.80;;;;;;2265321;61;20437;-68
2022/11/03 10:34:22;0.00;0.00;0.62;0.00;0.00;0.62;2.70;1.57;;;26.70;25.80;;;;;;2265480;61;20373;-70
2022/11/03 10:37:18;0.00;0.00;0.62;0.00;0.00;0.62;1.70;1.20;;;26.70;25.80;;;;;;2265269;61;20384;-66
2022/11/03 10:40:03;0.00;0.00;0.62;0.00;0.00;0.62;2.37;1.20;;;26.70;25.80;;;;;;2265784;61;20433;-68
2022/11/03 10:42:58;0.00;0.00;0.62;0.00;0.00;0.62;1.73;1.30;;;26.70;25.80;;;;;;2265948;61;20412;-66
2022/11/03 10:45:43;0.00;0.00;0.62;0.00;0.00;0.62;2.37;1.30;;;26.70;25.80;;;;;;2265137;61;20384;-67
2022/11/03 10:48:31;0.00;0.00;0.62;0.00;0.00;0.62;1.97;1.13;;;26.80;25.90;;;;;;2265623;61;20585;-61
2022/11/03 10:51:16;0.00;0.00;0.62;0.00;0.00;0.62;3.37;1.23;;;26.80;25.80;;;;;;2265252;61;20364;-63
2022/11/03 10:54:02;0.00;0.00;0.62;0.00;0.00;0.62;1.80;1.10;;;26.80;25.80;;;;;;2265819;61;20656;-63
2022/11/03 10:56:48;0.00;0.00;0.62;0.00;0.00;0.62;2.13;1.23;;;26.80;25.80;;;;;;2265635;61;20454;-65
2022/11/03 10:59:36;0.00;0.00;0.62;0.00;0.00;0.62;2.50;1.30;;;26.80;25.80;;;;;;2265144;61;20431;-64
2022/11/03 11:02:25;0.00;0.00;0.62;0.00;0.00;0.62;2.30;1.53;;;26.90;25.80;;;;;;2265752;61;20733;-69
2022/11/03 11:05:18;0.00;0.00;0.62;0.00;0.00;0.62;2.23;1.30;;;26.90;25.80;;;;;;2265584;61;20415;-65
2022/11/03 11:08:03;0.00;0.00;0.62;0.00;0.00;0.62;2.83;1.43;;;26.90;25.80;;;;;;2263143;61;20384;-66
2022/11/03 11:10:48;0.00;0.00;0.62;0.00;0.00;0.62;2.10;1.10;;;26.90;25.80;;;;;;2264493;61;20436;-63
2022/11/03 11:13:32;0.00;0.00;0.62;0.00;0.00;0.62;2.10;1.10;;;26.90;25.70;;;;;;2263602;61;20377;-69
2022/11/03 11:16:49;0.00;0.00;0.62;0.00;0.00;0.62;3.07;1.43;;;26.90;25.70;;;;;;2264360;61;20396;-65
2022/11/03 11:20:25;0.00;0.00;0.62;0.00;0.00;0.62;1.77;1.20;;;27.00;25.80;;;;;;2264625;61;20397;-64
2022/11/03 11:23:46;0.00;0.00;0.62;0.00;0.00;0.62;2.10;1.23;;;26.90;25.70;;;;;;2264130;61;20389;-67